Bemidji Regional Airport
KBJI : now visible

Airfield :











YOU CAN JOIN US ON...

 
LOGIN :

Register | Disclaimer

   EN    FR    IT 

 









Legend :    VFR   Marginal VFR   IFR   Intensive IFR   Very Intensive IFR
Visi :
Ceiling :
>= 8 km
>= 3000ft
5 to 8 km
1000 to 3000 ft
1500m to 5 km
500 to 1000 ft
800 to 1500m
200 to 500 ft
< 800m
< 200 ft
Symbols :   Thunderstorms  Fog  Heavy snow  Heavy precipitations  Wind > 20 kt






- Airport Elevation : 1391 ft


KBJI - Bemidji Regional

CURRENT METAR :
  • 270336Z AUTO 32004KT 10SM OVC034 M14/M17 A3017 RMK AO2 T11381168

EXPIRED METARs :
  • 270316Z AUTO 00000KT 10SM OVC034 M13/M17 A3017 RMK AO2 T11301166
  • 270255Z AUTO 00000KT 10SM OVC034 M13/M17 A3017 RMK AO2 T11341168
  • 270235Z AUTO 30003KT 10SM OVC034 M13/M17 A3017 RMK AO2 T11341169
  • 270216Z AUTO 28004KT 10SM OVC034 M14/M17 A3018 RMK AO2 T11401171
  • 270215Z AUTO 28003KT 10SM OVC034 M14/M17 A3018 RMK AO2 T11401171
  • 270155Z AUTO 00000KT 10SM OVC034 M14/M17 A3018 RMK AO2 T11361173
  • 270135Z AUTO 00000KT 10SM OVC036 M13/M18 A3018 RMK AO2 T11351177
  • 270116Z AUTO 03004KT 10SM SCT036 M12/M17 A3018 RMK AO2 T11231170
  • 270056Z AUTO 02003KT 10SM CLR M11/M16 A3019 RMK AO2 T11121165

TAF KBJI
Valid from the 27 at 00:00 until the 28 at 00:00 UTC


262335Z 2700/2724 VRB04KT P6SM SCT045
FM271400 VRB02KT P6SM BKN016
FM272300 VRB03KT P6SM OVC020



MET'MAP, your aeronautical weather chart ! - Copyright ORBIFLY December 2007 - Disclaimer

ORBIFLY MET'MAP TEAM :

Programming & Development : Alexandra Zaïnal
Concept & original design : Baudouin d'Aumeries
Assistance for programming : Marc-Olivier Méhu
Technical & hardware support : Manuel Goepfert

Contact : metmap@orbifly.com




SOURCES & CREDITS :

   NOAA       Earth
Advisory